sensor_id;sensor_type;location;lat;lon;timestamp;P1;durP1;ratioP1;P2;durP2;ratioP2
37077;SDS011;22989;55.998;37.212;2022-09-21T00:01:22;13.35;;;7.65;;
37077;SDS011;22989;55.998;37.212;2022-09-21T00:03:54;12.85;;;7.88;;
37077;SDS011;22989;55.998;37.212;2022-09-21T00:06:25;10.40;;;7.45;;
37077;SDS011;22989;55.998;37.212;2022-09-21T00:08:52;12.02;;;7.22;;
37077;SDS011;22989;55.998;37.212;2022-09-21T00:11:19;10.43;;;7.15;;
37077;SDS011;22989;55.998;37.212;2022-09-21T00:13:50;15.35;;;7.40;;
37077;SDS011;22989;55.998;37.212;2022-09-21T00:16:18;16.25;;;7.45;;
37077;SDS011;22989;55.998;37.212;2022-09-21T00:18:43;12.30;;;7.00;;
37077;SDS011;22989;55.998;37.212;2022-09-21T00:21:10;12.15;;;7.35;;
37077;SDS011;22989;55.998;37.212;2022-09-21T00:23:38;11.13;;;7.60;;
37077;SDS011;22989;55.998;37.212;2022-09-21T00:26:08;14.68;;;8.52;;
37077;SDS011;22989;55.998;37.212;2022-09-21T00:28:34;16.23;;;9.13;;
37077;SDS011;22989;55.998;37.212;2022-09-21T00:31:03;15.35;;;9.13;;
37077;SDS011;22989;55.998;37.212;2022-09-21T00:33:31;16.33;;;9.82;;
37077;SDS011;22989;55.998;37.212;2022-09-21T00:36:01;16.92;;;9.50;;
37077;SDS011;22989;55.998;37.212;2022-09-21T00:38:29;15.13;;;9.23;;
37077;SDS011;22989;55.998;37.212;2022-09-21T00:40:54;16.75;;;9.77;;
37077;SDS011;22989;55.998;37.212;2022-09-21T00:43:20;13.82;;;8.63;;
37077;SDS011;22989;55.998;37.212;2022-09-21T00:45:45;14.60;;;9.43;;
37077;SDS011;22989;55.998;37.212;2022-09-21T00:48:14;18.42;;;10.50;;
37077;SDS011;22989;55.998;37.212;2022-09-21T00:50:43;17.48;;;9.95;;
37077;SDS011;22989;55.998;37.212;2022-09-21T00:55:41;15.52;;;8.77;;
37077;SDS011;22989;55.998;37.212;2022-09-21T00:58:13;16.40;;;10.07;;
37077;SDS011;22989;55.998;37.212;2022-09-21T01:00:44;18.70;;;9.20;;
37077;SDS011;22989;55.998;37.212;2022-09-21T01:03:09;13.90;;;9.25;;
37077;SDS011;22989;55.998;37.212;2022-09-21T01:05:37;15.35;;;9.63;;
37077;SDS011;22989;55.998;37.212;2022-09-21T01:08:02;21.45;;;10.50;;
37077;SDS011;22989;55.998;37.212;2022-09-21T01:10:36;20.73;;;11.70;;
37077;SDS011;22989;55.998;37.212;2022-09-21T01:16:11;11.73;;;7.97;;
37077;SDS011;22989;55.998;37.212;2022-09-21T01:18:45;14.20;;;8.77;;
37077;SDS011;22989;55.998;37.212;2022-09-21T01:21:17;13.50;;;8.88;;
37077;SDS011;22989;55.998;37.212;2022-09-21T01:31:27;13.82;;;7.95;;
37077;SDS011;22989;55.998;37.212;2022-09-21T01:34:04;13.95;;;8.00;;
37077;SDS011;22989;55.998;37.212;2022-09-21T01:36:34;13.77;;;7.78;;
37077;SDS011;22989;55.998;37.212;2022-09-21T01:39:10;11.43;;;7.55;;
37077;SDS011;22989;55.998;37.212;2022-09-21T01:41:39;12.57;;;8.40;;
37077;SDS011;22989;55.998;37.212;2022-09-21T01:44:17;14.30;;;8.68;;
37077;SDS011;22989;55.998;37.212;2022-09-21T01:46:46;12.68;;;7.82;;
37077;SDS011;22989;55.998;37.212;2022-09-21T01:49:21;10.93;;;7.72;;
37077;SDS011;22989;55.998;37.212;2022-09-21T01:51:54;13.65;;;8.40;;
37077;SDS011;22989;55.998;37.212;2022-09-21T01:54:50;13.10;;;7.93;;
37077;SDS011;22989;55.998;37.212;2022-09-21T02:00:38;12.07;;;7.72;;
37077;SDS011;22989;55.998;37.212;2022-09-21T02:05:37;12.35;;;8.27;;
37077;SDS011;22989;55.998;37.212;2022-09-21T02:08:05;12.60;;;8.05;;
37077;SDS011;22989;55.998;37.212;2022-09-21T02:10:33;13.65;;;7.40;;
37077;SDS011;22989;55.998;37.212;2022-09-21T02:13:04;11.07;;;7.40;;
37077;SDS011;22989;55.998;37.212;2022-09-21T02:15:35;10.85;;;7.78;;
37077;SDS011;22989;55.998;37.212;2022-09-21T02:21:06;11.63;;;8.02;;
37077;SDS011;22989;55.998;37.212;2022-09-21T02:23:45;13.80;;;7.70;;
37077;SDS011;22989;55.998;37.212;2022-09-21T02:26:32;11.82;;;7.68;;
37077;SDS011;22989;55.998;37.212;2022-09-21T02:29:15;14.07;;;8.88;;
37077;SDS011;22989;55.998;37.212;2022-09-21T02:36:43;10.15;;;7.53;;
37077;SDS011;22989;55.998;37.212;2022-09-21T02:44:25;13.20;;;9.05;;
37077;SDS011;22989;55.998;37.212;2022-09-21T02:46:59;18.60;;;8.45;;
37077;SDS011;22989;55.998;37.212;2022-09-21T02:49:33;11.35;;;8.25;;
37077;SDS011;22989;55.998;37.212;2022-09-21T02:52:04;11.52;;;8.63;;
37077;SDS011;22989;55.998;37.212;2022-09-21T02:54:35;11.40;;;8.55;;
37077;SDS011;22989;55.998;37.212;2022-09-21T02:57:03;19.40;;;8.90;;
37077;SDS011;22989;55.998;37.212;2022-09-21T02:59:30;13.68;;;8.77;;
37077;SDS011;22989;55.998;37.212;2022-09-21T03:01:55;13.15;;;8.18;;
37077;SDS011;22989;55.998;37.212;2022-09-21T03:04:21;14.85;;;8.45;;
37077;SDS011;22989;55.998;37.212;2022-09-21T03:06:47;13.80;;;8.73;;
37077;SDS011;22989;55.998;37.212;2022-09-21T03:09:13;17.20;;;8.60;;
37077;SDS011;22989;55.998;37.212;2022-09-21T03:11:39;15.43;;;8.23;;
37077;SDS011;22989;55.998;37.212;2022-09-21T03:14:06;10.98;;;7.80;;
37077;SDS011;22989;55.998;37.212;2022-09-21T03:16:33;11.85;;;7.50;;
37077;SDS011;22989;55.998;37.212;2022-09-21T03:18:59;11.05;;;8.00;;
37077;SDS011;22989;55.998;37.212;2022-09-21T03:21:25;11.95;;;8.38;;
37077;SDS011;22989;55.998;37.212;2022-09-21T03:23:51;12.20;;;8.75;;
37077;SDS011;22989;55.998;37.212;2022-09-21T03:26:16;11.55;;;8.23;;
37077;SDS011;22989;55.998;37.212;2022-09-21T03:28:49;13.23;;;7.55;;
37077;SDS011;22989;55.998;37.212;2022-09-21T03:31:16;10.52;;;7.55;;
37077;SDS011;22989;55.998;37.212;2022-09-21T03:33:42;10.88;;;7.78;;
37077;SDS011;22989;55.998;37.212;2022-09-21T03:36:07;14.40;;;8.18;;
37077;SDS011;22989;55.998;37.212;2022-09-21T03:38:34;11.07;;;7.65;;
37077;SDS011;22989;55.998;37.212;2022-09-21T03:41:00;11.98;;;7.78;;
37077;SDS011;22989;55.998;37.212;2022-09-21T03:43:26;11.02;;;8.20;;
37077;SDS011;22989;55.998;37.212;2022-09-21T03:45:52;12.02;;;7.60;;
37077;SDS011;22989;55.998;37.212;2022-09-21T03:48:18;11.75;;;7.75;;
37077;SDS011;22989;55.998;37.212;2022-09-21T03:50:43;9.93;;;7.22;;
37077;SDS011;22989;55.998;37.212;2022-09-21T03:53:09;10.48;;;7.38;;
37077;SDS011;22989;55.998;37.212;2022-09-21T03:55:36;11.80;;;7.35;;
37077;SDS011;22989;55.998;37.212;2022-09-21T03:58:02;12.60;;;7.88;;
37077;SDS011;22989;55.998;37.212;2022-09-21T04:00:28;9.32;;;6.60;;
37077;SDS011;22989;55.998;37.212;2022-09-21T04:02:54;9.93;;;7.13;;
37077;SDS011;22989;55.998;37.212;2022-09-21T04:05:20;9.98;;;6.93;;
37077;SDS011;22989;55.998;37.212;2022-09-21T04:07:46;10.52;;;6.90;;
37077;SDS011;22989;55.998;37.212;2022-09-21T04:10:14;14.00;;;8.90;;
37077;SDS011;22989;55.998;37.212;2022-09-21T04:12:42;9.27;;;7.30;;
37077;SDS011;22989;55.998;37.212;2022-09-21T04:15:10;10.63;;;6.68;;
37077;SDS011;22989;55.998;37.212;2022-09-21T04:17:36;15.02;;;7.18;;
37077;SDS011;22989;55.998;37.212;2022-09-21T04:20:03;11.65;;;6.78;;
37077;SDS011;22989;55.998;37.212;2022-09-21T04:22:29;11.20;;;7.00;;
37077;SDS011;22989;55.998;37.212;2022-09-21T04:24:55;8.77;;;7.13;;
37077;SDS011;22989;55.998;37.212;2022-09-21T04:27:21;9.93;;;6.70;;
37077;SDS011;22989;55.998;37.212;2022-09-21T04:29:48;7.63;;;6.60;;
37077;SDS011;22989;55.998;37.212;2022-09-21T04:32:13;11.15;;;7.18;;
37077;SDS011;22989;55.998;37.212;2022-09-21T04:34:39;9.13;;;7.32;;
37077;SDS011;22989;55.998;37.212;2022-09-21T04:37:05;10.77;;;6.72;;
37077;SDS011;22989;55.998;37.212;2022-09-21T04:39:36;9.90;;;7.35;;
37077;SDS011;22989;55.998;37.212;2022-09-21T04:42:02;10.13;;;7.63;;
37077;SDS011;22989;55.998;37.212;2022-09-21T04:44:28;9.43;;;7.20;;
37077;SDS011;22989;55.998;37.212;2022-09-21T04:46:55;11.38;;;7.50;;
37077;SDS011;22989;55.998;37.212;2022-09-21T04:49:21;11.45;;;7.75;;
37077;SDS011;22989;55.998;37.212;2022-09-21T04:51:47;10.48;;;7.32;;
37077;SDS011;22989;55.998;37.212;2022-09-21T04:54:13;9.82;;;7.07;;
37077;SDS011;22989;55.998;37.212;2022-09-21T04:56:38;10.13;;;7.60;;
37077;SDS011;22989;55.998;37.212;2022-09-21T04:59:04;10.82;;;8.20;;
37077;SDS011;22989;55.998;37.212;2022-09-21T05:01:29;14.20;;;7.55;;
37077;SDS011;22989;55.998;37.212;2022-09-21T05:03:55;8.85;;;6.82;;
37077;SDS011;22989;55.998;37.212;2022-09-21T05:06:29;11.15;;;7.18;;
37077;SDS011;22989;55.998;37.212;2022-09-21T05:08:56;8.63;;;6.82;;
37077;SDS011;22989;55.998;37.212;2022-09-21T05:11:40;8.73;;;6.45;;
37077;SDS011;22989;55.998;37.212;2022-09-21T05:14:06;9.43;;;7.25;;
37077;SDS011;22989;55.998;37.212;2022-09-21T05:16:32;11.95;;;6.95;;
37077;SDS011;22989;55.998;37.212;2022-09-21T05:18:58;8.57;;;6.30;;
37077;SDS011;22989;55.998;37.212;2022-09-21T05:21:23;10.68;;;5.75;;
37077;SDS011;22989;55.998;37.212;2022-09-21T05:23:49;9.27;;;6.40;;
37077;SDS011;22989;55.998;37.212;2022-09-21T05:26:15;8.52;;;6.45;;
37077;SDS011;22989;55.998;37.212;2022-09-21T05:28:41;7.97;;;6.70;;
37077;SDS011;22989;55.998;37.212;2022-09-21T05:33:43;8.75;;;5.88;;
37077;SDS011;22989;55.998;37.212;2022-09-21T05:39:22;8.50;;;5.95;;
37077;SDS011;22989;55.998;37.212;2022-09-21T05:41:47;10.32;;;6.15;;
37077;SDS011;22989;55.998;37.212;2022-09-21T05:44:13;9.20;;;6.30;;
37077;SDS011;22989;55.998;37.212;2022-09-21T05:46:45;11.82;;;6.70;;
37077;SDS011;22989;55.998;37.212;2022-09-21T05:52:32;12.07;;;6.17;;
37077;SDS011;22989;55.998;37.212;2022-09-21T05:58:09;8.23;;;6.10;;
37077;SDS011;22989;55.998;37.212;2022-09-21T06:00:49;8.73;;;6.00;;
37077;SDS011;22989;55.998;37.212;2022-09-21T06:03:37;7.63;;;5.80;;
37077;SDS011;22989;55.998;37.212;2022-09-21T06:06:06;7.88;;;6.60;;
37077;SDS011;22989;55.998;37.212;2022-09-21T06:08:32;7.20;;;5.38;;
37077;SDS011;22989;55.998;37.212;2022-09-21T06:10:58;6.70;;;5.20;;
37077;SDS011;22989;55.998;37.212;2022-09-21T06:13:24;6.15;;;5.55;;
37077;SDS011;22989;55.998;37.212;2022-09-21T06:15:50;5.30;;;4.80;;
37077;SDS011;22989;55.998;37.212;2022-09-21T06:18:16;4.97;;;4.50;;
37077;SDS011;22989;55.998;37.212;2022-09-21T06:20:42;7.32;;;4.80;;
37077;SDS011;22989;55.998;37.212;2022-09-21T06:23:09;6.25;;;5.20;;
37077;SDS011;22989;55.998;37.212;2022-09-21T06:25:35;7.25;;;5.00;;
37077;SDS011;22989;55.998;37.212;2022-09-21T06:28:05;4.90;;;4.40;;
37077;SDS011;22989;55.998;37.212;2022-09-21T06:30:32;4.90;;;4.40;;
37077;SDS011;22989;55.998;37.212;2022-09-21T06:33:01;5.10;;;4.60;;
37077;SDS011;22989;55.998;37.212;2022-09-21T06:35:29;5.88;;;4.40;;
37077;SDS011;22989;55.998;37.212;2022-09-21T06:38:02;5.05;;;4.20;;
37077;SDS011;22989;55.998;37.212;2022-09-21T06:40:31;6.40;;;4.40;;
37077;SDS011;22989;55.998;37.212;2022-09-21T06:42:58;5.43;;;4.82;;
37077;SDS011;22989;55.998;37.212;2022-09-21T06:45:26;6.03;;;4.70;;
37077;SDS011;22989;55.998;37.212;2022-09-21T06:47:52;6.07;;;4.68;;
37077;SDS011;22989;55.998;37.212;2022-09-21T06:50:19;5.20;;;4.40;;
37077;SDS011;22989;55.998;37.212;2022-09-21T06:52:45;6.20;;;4.90;;
37077;SDS011;22989;55.998;37.212;2022-09-21T06:55:11;5.72;;;4.93;;
37077;SDS011;22989;55.998;37.212;2022-09-21T06:57:37;5.47;;;4.90;;
37077;SDS011;22989;55.998;37.212;2022-09-21T07:00:04;5.72;;;4.97;;
37077;SDS011;22989;55.998;37.212;2022-09-21T07:02:32;6.53;;;4.63;;
37077;SDS011;22989;55.998;37.212;2022-09-21T07:04:58;6.53;;;4.93;;
37077;SDS011;22989;55.998;37.212;2022-09-21T07:07:24;8.75;;;4.95;;
37077;SDS011;22989;55.998;37.212;2022-09-21T07:09:50;5.97;;;4.93;;
37077;SDS011;22989;55.998;37.212;2022-09-21T07:12:16;8.00;;;4.60;;
37077;SDS011;22989;55.998;37.212;2022-09-21T07:14:42;5.97;;;4.43;;
37077;SDS011;22989;55.998;37.212;2022-09-21T07:17:12;5.05;;;4.50;;
37077;SDS011;22989;55.998;37.212;2022-09-21T07:19:39;6.93;;;4.45;;
37077;SDS011;22989;55.998;37.212;2022-09-21T07:22:05;4.20;;;3.80;;
37077;SDS011;22989;55.998;37.212;2022-09-21T07:24:31;5.03;;;3.92;;
37077;SDS011;22989;55.998;37.212;2022-09-21T07:26:57;5.78;;;3.83;;
37077;SDS011;22989;55.998;37.212;2022-09-21T07:29:23;6.25;;;4.68;;
37077;SDS011;22989;55.998;37.212;2022-09-21T07:31:49;5.57;;;4.60;;
37077;SDS011;22989;55.998;37.212;2022-09-21T07:34:15;5.72;;;4.25;;
37077;SDS011;22989;55.998;37.212;2022-09-21T07:36:41;4.70;;;3.90;;
37077;SDS011;22989;55.998;37.212;2022-09-21T07:39:07;6.68;;;4.10;;
37077;SDS011;22989;55.998;37.212;2022-09-21T07:41:34;6.68;;;3.92;;
37077;SDS011;22989;55.998;37.212;2022-09-21T07:44:00;7.13;;;4.10;;
37077;SDS011;22989;55.998;37.212;2022-09-21T07:46:26;6.22;;;3.90;;
37077;SDS011;22989;55.998;37.212;2022-09-21T07:48:53;8.93;;;4.10;;
37077;SDS011;22989;55.998;37.212;2022-09-21T07:51:19;6.38;;;3.85;;
37077;SDS011;22989;55.998;37.212;2022-09-21T07:53:44;6.15;;;3.80;;
37077;SDS011;22989;55.998;37.212;2022-09-21T07:56:12;6.70;;;3.97;;
37077;SDS011;22989;55.998;37.212;2022-09-21T07:58:39;5.40;;;4.40;;
37077;SDS011;22989;55.998;37.212;2022-09-21T08:01:40;6.07;;;5.00;;
37077;SDS011;22989;55.998;37.212;2022-09-21T08:04:07;7.03;;;5.20;;
37077;SDS011;22989;55.998;37.212;2022-09-21T08:06:35;19.80;;;4.90;;
37077;SDS011;22989;55.998;37.212;2022-09-21T08:09:04;6.15;;;5.30;;
37077;SDS011;22989;55.998;37.212;2022-09-21T08:11:30;6.22;;;4.57;;
37077;SDS011;22989;55.998;37.212;2022-09-21T08:13:58;6.47;;;4.50;;
37077;SDS011;22989;55.998;37.212;2022-09-21T08:16:25;6.47;;;5.07;;
37077;SDS011;22989;55.998;37.212;2022-09-21T08:18:52;6.63;;;4.85;;
37077;SDS011;22989;55.998;37.212;2022-09-21T08:21:17;8.18;;;4.22;;
37077;SDS011;22989;55.998;37.212;2022-09-21T08:23:45;8.02;;;4.65;;
37077;SDS011;22989;55.998;37.212;2022-09-21T08:26:13;8.43;;;4.22;;
37077;SDS011;22989;55.998;37.212;2022-09-21T08:28:44;6.95;;;5.28;;
37077;SDS011;22989;55.998;37.212;2022-09-21T08:31:14;16.73;;;4.80;;
37077;SDS011;22989;55.998;37.212;2022-09-21T08:33:41;6.63;;;4.20;;
37077;SDS011;22989;55.998;37.212;2022-09-21T08:36:07;5.57;;;4.30;;
37077;SDS011;22989;55.998;37.212;2022-09-21T08:38:34;7.20;;;4.53;;
37077;SDS011;22989;55.998;37.212;2022-09-21T08:41:01;4.63;;;4.18;;
37077;SDS011;22989;55.998;37.212;2022-09-21T08:43:41;4.82;;;3.70;;
37077;SDS011;22989;55.998;37.212;2022-09-21T08:46:10;5.90;;;3.58;;
37077;SDS011;22989;55.998;37.212;2022-09-21T08:48:42;3.58;;;3.28;;
37077;SDS011;22989;55.998;37.212;2022-09-21T08:51:21;4.32;;;3.40;;
37077;SDS011;22989;55.998;37.212;2022-09-21T08:53:51;4.28;;;3.78;;
37077;SDS011;22989;55.998;37.212;2022-09-21T08:56:21;5.90;;;3.83;;
37077;SDS011;22989;55.998;37.212;2022-09-21T08:58:48;4.32;;;3.50;;
37077;SDS011;22989;55.998;37.212;2022-09-21T09:20:11;4.13;;;3.25;;
37077;SDS011;22989;55.998;37.212;2022-09-21T09:22:41;4.25;;;3.05;;
37077;SDS011;22989;55.998;37.212;2022-09-21T09:25:15;3.75;;;3.28;;
37077;SDS011;22989;55.998;37.212;2022-09-21T09:27:44;6.05;;;3.13;;
37077;SDS011;22989;55.998;37.212;2022-09-21T09:38:14;3.78;;;3.10;;
37077;SDS011;22989;55.998;37.212;2022-09-21T09:40:55;3.20;;;2.90;;
37077;SDS011;22989;55.998;37.212;2022-09-21T09:51:18;6.20;;;3.20;;
37077;SDS011;22989;55.998;37.212;2022-09-21T09:53:44;8.43;;;2.95;;
37077;SDS011;22989;55.998;37.212;2022-09-21T09:56:10;4.03;;;2.67;;
37077;SDS011;22989;55.998;37.212;2022-09-21T10:01:10;4.13;;;2.58;;
37077;SDS011;22989;55.998;37.212;2022-09-21T10:06:38;3.78;;;3.10;;
37077;SDS011;22989;55.998;37.212;2022-09-21T10:14:28;3.78;;;2.80;;
37077;SDS011;22989;55.998;37.212;2022-09-21T10:17:05;3.83;;;2.40;;
37077;SDS011;22989;55.998;37.212;2022-09-21T10:19:32;3.72;;;2.70;;
37077;SDS011;22989;55.998;37.212;2022-09-21T10:21:59;4.78;;;2.70;;
37077;SDS011;22989;55.998;37.212;2022-09-21T10:27:09;3.38;;;2.97;;
37077;SDS011;22989;55.998;37.212;2022-09-21T10:29:39;5.35;;;2.80;;
37077;SDS011;22989;55.998;37.212;2022-09-21T10:32:17;3.83;;;2.53;;
37077;SDS011;22989;55.998;37.212;2022-09-21T10:37:30;5.30;;;3.00;;
37077;SDS011;22989;55.998;37.212;2022-09-21T10:42:55;3.50;;;2.63;;
37077;SDS011;22989;55.998;37.212;2022-09-21T10:45:30;6.10;;;3.33;;
37077;SDS011;22989;55.998;37.212;2022-09-21T10:48:15;4.53;;;3.33;;
37077;SDS011;22989;55.998;37.212;2022-09-21T10:50:46;3.25;;;2.75;;
37077;SDS011;22989;55.998;37.212;2022-09-21T10:53:27;3.58;;;3.05;;
37077;SDS011;22989;55.998;37.212;2022-09-21T10:58:25;5.50;;;2.85;;
37077;SDS011;22989;55.998;37.212;2022-09-21T11:00:52;2.55;;;2.35;;
37077;SDS011;22989;55.998;37.212;2022-09-21T11:05:55;2.63;;;2.33;;
37077;SDS011;22989;55.998;37.212;2022-09-21T11:08:32;2.63;;;2.35;;
37077;SDS011;22989;55.998;37.212;2022-09-21T11:11:29;3.17;;;2.45;;
37077;SDS011;22989;55.998;37.212;2022-09-21T11:16:38;6.55;;;3.03;;
37077;SDS011;22989;55.998;37.212;2022-09-21T11:25:19;4.25;;;2.42;;
37077;SDS011;22989;55.998;37.212;2022-09-21T11:27:50;6.68;;;2.17;;
37077;SDS011;22989;55.998;37.212;2022-09-21T11:30:21;2.95;;;2.42;;
37077;SDS011;22989;55.998;37.212;2022-09-21T11:53:03;2.53;;;1.80;;
37077;SDS011;22989;55.998;37.212;2022-09-21T11:55:36;4.25;;;1.95;;
37077;SDS011;22989;55.998;37.212;2022-09-21T11:58:35;2.75;;;1.98;;
37077;SDS011;22989;55.998;37.212;2022-09-21T12:04:15;2.47;;;2.03;;
37077;SDS011;22989;55.998;37.212;2022-09-21T12:12:20;8.68;;;2.85;;
37077;SDS011;22989;55.998;37.212;2022-09-21T12:14:59;3.80;;;3.17;;
37077;SDS011;22989;55.998;37.212;2022-09-21T12:23:13;4.15;;;3.40;;
37077;SDS011;22989;55.998;37.212;2022-09-21T12:25:49;4.85;;;3.10;;
37077;SDS011;22989;55.998;37.212;2022-09-21T12:28:22;4.63;;;3.35;;
37077;SDS011;22989;55.998;37.212;2022-09-21T12:30:53;4.45;;;3.30;;
37077;SDS011;22989;55.998;37.212;2022-09-21T12:33:43;10.68;;;3.40;;
37077;SDS011;22989;55.998;37.212;2022-09-21T12:36:31;3.70;;;3.00;;
37077;SDS011;22989;55.998;37.212;2022-09-21T12:39:06;3.97;;;2.97;;
37077;SDS011;22989;55.998;37.212;2022-09-21T12:44:27;5.05;;;3.00;;
37077;SDS011;22989;55.998;37.212;2022-09-21T12:49:44;3.63;;;2.78;;
37077;SDS011;22989;55.998;37.212;2022-09-21T12:52:22;3.15;;;2.63;;
37077;SDS011;22989;55.998;37.212;2022-09-21T12:54:56;4.05;;;2.83;;
37077;SDS011;22989;55.998;37.212;2022-09-21T13:00:33;3.28;;;2.92;;
37077;SDS011;22989;55.998;37.212;2022-09-21T13:03:11;4.13;;;2.90;;
37077;SDS011;22989;55.998;37.212;2022-09-21T13:11:19;3.83;;;2.80;;
37077;SDS011;22989;55.998;37.212;2022-09-21T13:13:51;7.82;;;3.08;;
37077;SDS011;22989;55.998;37.212;2022-09-21T13:16:25;3.53;;;3.10;;
37077;SDS011;22989;55.998;37.212;2022-09-21T13:19:03;3.65;;;2.95;;
37077;SDS011;22989;55.998;37.212;2022-09-21T13:21:46;3.00;;;2.67;;
37077;SDS011;22989;55.998;37.212;2022-09-21T13:24:39;5.05;;;3.50;;
37077;SDS011;22989;55.998;37.212;2022-09-21T13:27:07;4.95;;;2.85;;
37077;SDS011;22989;55.998;37.212;2022-09-21T13:29:34;7.85;;;3.20;;
37077;SDS011;22989;55.998;37.212;2022-09-21T13:32:02;4.63;;;3.03;;
37077;SDS011;22989;55.998;37.212;2022-09-21T13:34:46;6.85;;;3.10;;
37077;SDS011;22989;55.998;37.212;2022-09-21T13:47:30;3.00;;;2.72;;
37077;SDS011;22989;55.998;37.212;2022-09-21T13:50:09;6.95;;;2.70;;
37077;SDS011;22989;55.998;37.212;2022-09-21T13:52:43;4.18;;;2.90;;
37077;SDS011;22989;55.998;37.212;2022-09-21T13:58:05;3.25;;;2.65;;
37077;SDS011;22989;55.998;37.212;2022-09-21T14:00:49;4.00;;;2.88;;
37077;SDS011;22989;55.998;37.212;2022-09-21T14:03:30;3.30;;;2.60;;
37077;SDS011;22989;55.998;37.212;2022-09-21T14:06:04;2.90;;;2.50;;
37077;SDS011;22989;55.998;37.212;2022-09-21T14:08:32;7.47;;;2.80;;
37077;SDS011;22989;55.998;37.212;2022-09-21T14:13:41;3.72;;;2.38;;
37077;SDS011;22989;55.998;37.212;2022-09-21T14:24:49;3.78;;;2.90;;
37077;SDS011;22989;55.998;37.212;2022-09-21T14:27:57;4.07;;;2.67;;
37077;SDS011;22989;55.998;37.212;2022-09-21T14:30:25;3.97;;;3.00;;
37077;SDS011;22989;55.998;37.212;2022-09-21T14:35:24;4.60;;;2.60;;
37077;SDS011;22989;55.998;37.212;2022-09-21T14:40:25;3.03;;;2.70;;
37077;SDS011;22989;55.998;37.212;2022-09-21T14:42:56;5.68;;;2.80;;
37077;SDS011;22989;55.998;37.212;2022-09-21T14:45:29;4.47;;;2.95;;
37077;SDS011;22989;55.998;37.212;2022-09-21T14:48:25;3.90;;;3.00;;
37077;SDS011;22989;55.998;37.212;2022-09-21T14:59:15;7.50;;;3.10;;
37077;SDS011;22989;55.998;37.212;2022-09-21T15:02:16;5.97;;;3.30;;
37077;SDS011;22989;55.998;37.212;2022-09-21T15:13:09;3.90;;;3.17;;
37077;SDS011;22989;55.998;37.212;2022-09-21T15:18:15;3.53;;;3.10;;
37077;SDS011;22989;55.998;37.212;2022-09-21T15:20:44;4.43;;;3.40;;
37077;SDS011;22989;55.998;37.212;2022-09-21T15:23:31;8.52;;;3.60;;
37077;SDS011;22989;55.998;37.212;2022-09-21T15:26:06;5.55;;;3.70;;
37077;SDS011;22989;55.998;37.212;2022-09-21T15:28:35;4.88;;;3.50;;
37077;SDS011;22989;55.998;37.212;2022-09-21T15:31:12;5.72;;;3.17;;
37077;SDS011;22989;55.998;37.212;2022-09-21T15:33:39;4.18;;;3.50;;
37077;SDS011;22989;55.998;37.212;2022-09-21T15:36:06;5.03;;;2.55;;
37077;SDS011;22989;55.998;37.212;2022-09-21T15:38:34;6.65;;;3.60;;
37077;SDS011;22989;55.998;37.212;2022-09-21T15:41:02;4.07;;;3.78;;
37077;SDS011;22989;55.998;37.212;2022-09-21T15:43:30;4.30;;;3.90;;
37077;SDS011;22989;55.998;37.212;2022-09-21T15:46:04;5.10;;;4.22;;
37077;SDS011;22989;55.998;37.212;2022-09-21T15:48:35;3.60;;;3.30;;
37077;SDS011;22989;55.998;37.212;2022-09-21T15:51:14;4.50;;;4.10;;
37077;SDS011;22989;55.998;37.212;2022-09-21T15:54:13;8.40;;;5.05;;
37077;SDS011;22989;55.998;37.212;2022-09-21T15:56:45;5.20;;;4.70;;
37077;SDS011;22989;55.998;37.212;2022-09-21T15:59:13;6.03;;;4.38;;
37077;SDS011;22989;55.998;37.212;2022-09-21T16:01:46;4.82;;;4.30;;
37077;SDS011;22989;55.998;37.212;2022-09-21T16:04:15;5.43;;;4.50;;
37077;SDS011;22989;55.998;37.212;2022-09-21T16:06:44;5.70;;;4.82;;
37077;SDS011;22989;55.998;37.212;2022-09-21T16:11:56;7.90;;;5.43;;
37077;SDS011;22989;55.998;37.212;2022-09-21T16:14:22;8.15;;;5.25;;
37077;SDS011;22989;55.998;37.212;2022-09-21T16:22:12;7.07;;;5.47;;
37077;SDS011;22989;55.998;37.212;2022-09-21T16:24:49;6.07;;;5.47;;
37077;SDS011;22989;55.998;37.212;2022-09-21T16:27:17;5.75;;;5.18;;
37077;SDS011;22989;55.998;37.212;2022-09-21T16:29:45;6.93;;;5.57;;
37077;SDS011;22989;55.998;37.212;2022-09-21T16:34:51;6.30;;;5.70;;
37077;SDS011;22989;55.998;37.212;2022-09-21T16:39:44;7.47;;;5.00;;
37077;SDS011;22989;55.998;37.212;2022-09-21T16:42:10;6.75;;;5.10;;
37077;SDS011;22989;55.998;37.212;2022-09-21T16:44:37;8.48;;;5.03;;
37077;SDS011;22989;55.998;37.212;2022-09-21T16:47:09;7.18;;;5.35;;
37077;SDS011;22989;55.998;37.212;2022-09-21T16:49:38;5.70;;;5.05;;
37077;SDS011;22989;55.998;37.212;2022-09-21T16:52:03;6.93;;;4.68;;
37077;SDS011;22989;55.998;37.212;2022-09-21T16:54:31;5.38;;;4.47;;
37077;SDS011;22989;55.998;37.212;2022-09-21T16:56:59;9.32;;;5.13;;
37077;SDS011;22989;55.998;37.212;2022-09-21T16:59:27;9.88;;;5.65;;
37077;SDS011;22989;55.998;37.212;2022-09-21T17:01:54;8.55;;;5.63;;
37077;SDS011;22989;55.998;37.212;2022-09-21T17:04:23;8.45;;;5.90;;
37077;SDS011;22989;55.998;37.212;2022-09-21T17:06:50;9.65;;;5.97;;
37077;SDS011;22989;55.998;37.212;2022-09-21T17:11:55;7.10;;;5.70;;
37077;SDS011;22989;55.998;37.212;2022-09-21T17:14:25;7.25;;;5.32;;
37077;SDS011;22989;55.998;37.212;2022-09-21T17:16:55;7.30;;;5.85;;
37077;SDS011;22989;55.998;37.212;2022-09-21T17:19:23;6.43;;;5.57;;
37077;SDS011;22989;55.998;37.212;2022-09-21T17:21:49;8.32;;;5.53;;
37077;SDS011;22989;55.998;37.212;2022-09-21T17:24:15;7.60;;;5.03;;
37077;SDS011;22989;55.998;37.212;2022-09-21T17:26:42;8.40;;;5.55;;
37077;SDS011;22989;55.998;37.212;2022-09-21T17:29:24;10.07;;;6.18;;
37077;SDS011;22989;55.998;37.212;2022-09-21T17:31:55;7.93;;;5.88;;
37077;SDS011;22989;55.998;37.212;2022-09-21T17:34:23;8.95;;;5.95;;
37077;SDS011;22989;55.998;37.212;2022-09-21T17:36:51;10.48;;;5.90;;
37077;SDS011;22989;55.998;37.212;2022-09-21T17:39:18;9.25;;;5.90;;
37077;SDS011;22989;55.998;37.212;2022-09-21T17:42:04;10.80;;;6.32;;
37077;SDS011;22989;55.998;37.212;2022-09-21T17:45:08;9.85;;;6.40;;
37077;SDS011;22989;55.998;37.212;2022-09-21T17:47:38;14.27;;;6.63;;
37077;SDS011;22989;55.998;37.212;2022-09-21T17:52:37;9.77;;;6.78;;
37077;SDS011;22989;55.998;37.212;2022-09-21T17:55:23;9.32;;;6.43;;
37077;SDS011;22989;55.998;37.212;2022-09-21T17:58:02;8.52;;;6.43;;
37077;SDS011;22989;55.998;37.212;2022-09-21T18:03:21;9.02;;;6.20;;
37077;SDS011;22989;55.998;37.212;2022-09-21T18:05:50;9.10;;;6.18;;
37077;SDS011;22989;55.998;37.212;2022-09-21T18:08:20;8.85;;;6.15;;
37077;SDS011;22989;55.998;37.212;2022-09-21T18:10:56;11.07;;;6.32;;
37077;SDS011;22989;55.998;37.212;2022-09-21T18:22:09;8.55;;;6.20;;
37077;SDS011;22989;55.998;37.212;2022-09-21T18:24:43;9.90;;;6.45;;
37077;SDS011;22989;55.998;37.212;2022-09-21T18:27:10;12.38;;;7.15;;
37077;SDS011;22989;55.998;37.212;2022-09-21T18:29:36;10.20;;;6.40;;
37077;SDS011;22989;55.998;37.212;2022-09-21T18:32:08;10.02;;;6.50;;
37077;SDS011;22989;55.998;37.212;2022-09-21T18:37:44;9.93;;;6.10;;
37077;SDS011;22989;55.998;37.212;2022-09-21T18:54:21;7.53;;;5.47;;
37077;SDS011;22989;55.998;37.212;2022-09-21T18:56:48;7.80;;;5.40;;
37077;SDS011;22989;55.998;37.212;2022-09-21T18:59:14;9.90;;;6.00;;
37077;SDS011;22989;55.998;37.212;2022-09-21T19:01:42;8.57;;;6.10;;
37077;SDS011;22989;55.998;37.212;2022-09-21T19:04:09;9.60;;;6.40;;
37077;SDS011;22989;55.998;37.212;2022-09-21T19:06:41;9.68;;;6.03;;